Flight Track Log - Related Links

Times and Time Zones

All times are in EDT time to prevent confusion due to time zone crossing. See the TCF5993 flight status page for this flight to view local times or setup timezone preferences in your user account.

Time Position Orientation Groundspeed Altitude Reporting Facility
EDT Latitude Longitude Course Direction KTS MPH feet Rate Location/Type
Sun 05:11:23 PM 44.7456 -68.8008 244° Southwest 223 257 5,000  Level Boston Center
Sun 05:12:22 PM 44.7169 -68.8817 244° Southwest 233 268 8,700 3,250 Climbing Boston Center
Sun 05:13:23 PM 44.6822 -68.9714 241° Southwest 238 274 11,500 2,409 Climbing Boston Center
Sun 05:14:00 PM 44.5410 -69.4750 240° Southwest  Level FlightAware Approximate
Sun 05:14:34 PM 44.6494 -69.0667 244° Southwest 250 288 14,000  Level Boston Center
Sun 05:15:00 PM 44.4985 -69.5855 244° Southwest  Level FlightAware Approximate
Sun 05:15:34 PM 44.6031 -69.1861 241° Southwest 274 315 17,000  Level Boston Center
Sun 05:16:00 PM 44.4591 -69.6983 244° Southwest  Level FlightAware Approximate
Sun 05:16:35 PM 44.5642 -69.2903 242° Southwest 296 341 19,200  Level Boston Center
Sun 05:17:35 PM 44.5253 -69.3969 243° Southwest 307 353 21,800 2,450 Climbing Boston Center
Sun 05:18:35 PM 44.4825 -69.5100 242° Southwest 318 366 24,100 2,231 Climbing Boston Center
Sun 05:19:36 PM 44.4356 -69.6344 242° Southwest 323 372 26,300 2,118 Climbing Boston Center
Sun 05:20:34 PM 44.3906 -69.7556 243° Southwest 339 390 28,300 1,815 Climbing Boston Center
Sun 05:21:35 PM 44.3453 -69.8739 242° Southwest 345 397 29,900 1,426 Climbing Boston Center
Sun 05:22:36 PM 44.3097 -69.9711 243° Southwest 352 405 31,200 1,785 Climbing Boston Center
Sun 05:23:36 PM 44.2544 -70.1156 242° Southwest 358 412 33,500 1,400 Climbing Boston Center
Sun 05:24:36 PM 44.2108 -70.2272 241° Southwest 352 405 34,000 252 Climbing Boston Center
Sun 05:25:35 PM 44.1672 -70.3389 241° Southwest 341 392 34,000  Level Boston Center
Sun 05:26:35 PM 44.1253 -70.4503 242° Southwest 335 386 34,000  Level Boston Center
Sun 05:27:36 PM 44.0814 -70.5617 241° Southwest 335 386 34,000  Level Boston Center
Sun 05:28:35 PM 44.0353 -70.6756 241° Southwest 335 386 34,000  Level Boston Center
Sun 05:29:35 PM 43.9911 -70.7894 242° Southwest 335 386 34,000  Level Boston Center
Sun 05:30:36 PM 43.9528 -70.8886 242° Southwest 335 386 34,000  Level Boston Center
Sun 05:31:34 PM 43.9086 -70.9992 241° Southwest 335 386 34,000  Level Boston Center
Sun 05:32:35 PM 43.8661 -71.1097 242° Southwest 329 379 34,000  Level Boston Center
Sun 05:33:36 PM 43.8194 -71.2231 240° Southwest 329 379 34,000  Level Boston Center
Sun 05:34:36 PM 43.7767 -71.3331 242° Southwest 329 379 34,000  Level Boston Center
Sun 05:35:34 PM 43.7339 -71.4403 241° Southwest 329 379 34,000  Level Boston Center
Sun 05:36:34 PM 43.6850 -71.5617 241° Southwest 329 379 34,000  Level Boston Center
Sun 05:37:34 PM 43.6419 -71.6742 242° Southwest 329 379 34,000  Level Boston Center
Sun 05:38:36 PM 43.6011 -71.7808 242° Southwest 329 379 34,000  Level Boston Center
Sun 05:39:34 PM 43.5558 -71.8900 240° Southwest 329 379 34,000  Level Boston Center
Sun 05:40:34 PM 43.5125 -71.9936 240° Southwest 329 379 34,000  Level Boston Center
Sun 05:41:34 PM 43.4669 -72.1025 240° Southwest 329 379 34,000 -99 Level Boston Center
Sun 05:42:35 PM 43.4256 -72.2086 242° Southwest 329 379 33,800 -689 Descending Boston Center
Sun 05:43:36 PM 43.3756 -72.3258 240° Southwest 334 384 32,600 -1,190 Descending Boston Center
Sun 05:44:36 PM 43.3278 -72.4400 240° Southwest 340 391 31,400 -1,271 Descending Boston Center
Sun 05:45:34 PM 43.2797 -72.5600 241° Southwest 346 398 30,100 -1,271 Descending Boston Center
Sun 05:46:34 PM 43.2339 -72.6739 241° Southwest 351 404 28,900 -1,041 Descending Boston Center
Sun 05:47:35 PM 43.1878 -72.7761 238° Southwest 356 410 28,000 -443 Descending Boston Center
Sun 05:48:36 PM 43.1353 -72.8981 239° Southwest 350 403 28,000  Level Boston Center
Sun 05:49:36 PM 43.0950 -73.0003 242° Southwest 345 397 28,000  Level Boston Center
Sun 05:50:34 PM 43.0467 -73.1161 240° Southwest 345 397 28,000  Level Boston Center
Sun 05:51:34 PM 42.9978 -73.2292 239° Southwest 350 403 28,000  Level Boston Center
Sun 05:52:35 PM 42.9492 -73.3419 240° Southwest 355 409 28,000 -135 Level Boston Center
Sun 05:53:47 PM 42.8919 -73.4658 238° Southwest 355 409 27,700 -595 Descending Boston Center
Sun 05:54:46 PM 42.8428 -73.5925 242° Southwest 355 409 26,700 -1,250 Descending Boston Center
Sun 05:55:47 PM 42.7956 -73.7019 240° Southwest 350 403 25,200 -1,770 Descending Boston Center
Sun 05:56:48 PM 42.7114 -73.7822 215° Southwest 344 396 23,100 -1,627 Descending Boston Center
Sun 05:57:45 PM 42.6322 -73.7861 182° South 318 366 22,000 -559 Descending Boston Center
Sun 05:58:46 PM 42.5428 -73.7644 170° South 329 379 22,000 -829 Level Boston Center
Sun 05:59:48 PM 42.4264 -73.7394 171° South 342 394 20,300 -1,475 Descending Boston Center
Sun 06:00:48 PM 42.3161 -73.7147 171° South 354 407 19,000 -595 Descending Boston Center
Sun 06:01:59 PM 42.2289 -73.6989 172° South 354 407 19,000  Level Boston Center
Sun 06:02:58 PM 42.1122 -73.6742 171° South 354 407 19,000  Level Boston Center
Sun 06:03:59 PM 42.0064 -73.6528 171° South 354 407 19,000  Level Boston Center
Sun 06:04:59 PM 41.9086 -73.6311 171° South 354 407 19,000 -496 Level Boston Center
Sun 06:06:00 PM 41.8106 -73.6378 183° South 347 399 18,000 -1,311 Descending Boston Center
Sun 06:06:58 PM 41.7247 -73.6667 194° South 337 388 16,400 -1,563 Descending Boston Center
Sun 06:07:59 PM 41.6472 -73.6958 196° South 332 382 14,900 -1,623 Descending Boston Center
Sun 06:09:00 PM 41.5553 -73.7300 196° South 317 365 13,100 -1,721 Descending Boston Center
Sun 06:10:15 PM 41.4500 -73.7667 195° South 298 343 11,000 -1,600 Descending New York TRACON
Sun 06:11:15 PM 41.3833 -73.7833 191° South 267 307 9,500 -1,500 Descending New York TRACON
Sun 06:12:15 PM 41.3000 -73.7667 171° South 292 336 8,000 -1,550 Descending New York TRACON
Sun 06:13:15 PM 41.2333 -73.7000 143° Southeast 282 325 6,400 -1,700 Descending New York TRACON
Sun 06:14:15 PM 41.1667 -73.6833 169° South 257 296 4,600 -1,200 Descending New York TRACON
Sun 06:15:15 PM 41.1000 -73.6667 169° South 248 285 4,000 -286 Descending New York TRACON
Sun 06:16:21 PM 41.0333 -73.6667 180° South 237 273 4,000  Level New York TRACON
Sun 06:17:21 PM 40.9833 -73.7167 217° Southwest 221 254 4,000 -211 Level New York TRACON
Sun 06:18:15 PM 40.9333 -73.7500 207° Southwest 184 212 3,600 -700 Descending New York TRACON
Sun 06:19:21 PM 40.9000 -73.7833 217° Southwest 159 183 2,600 -857 Descending New York TRACON
Sun 06:20:21 PM 40.8667 -73.8167 217° Southwest 154 177 1,800 -800 Descending New York TRACON

Login

Don't have an account? Register now (free) for customized features, flight alerts, and more!